createdAt,value
2023-01-25T00:23:48.796Z,507.00
2023-01-25T00:24:48.654Z,507.00
2023-01-25T00:25:48.555Z,506.00
2023-01-25T00:26:48.478Z,509.00
2023-01-25T00:27:48.379Z,511.00
2023-01-25T00:28:48.292Z,509.00
2023-01-25T00:29:48.204Z,509.00
2023-01-25T00:30:48.096Z,511.00
2023-01-25T00:31:48.128Z,513.00
2023-01-25T00:32:47.977Z,509.00
2023-01-25T00:33:47.835Z,508.00
2023-01-25T00:34:47.747Z,507.00
2023-01-25T00:35:47.655Z,509.00
2023-01-25T00:36:47.552Z,504.00
2023-01-25T00:37:47.459Z,507.00
2023-01-25T00:38:47.373Z,506.00
2023-01-25T00:57:45.613Z,510.00
2023-01-25T00:58:45.550Z,505.00
2023-01-25T00:59:45.424Z,507.00
2023-01-25T01:00:45.417Z,510.00
2023-01-25T01:01:45.240Z,504.00
2023-01-25T01:02:45.138Z,506.00
2023-01-25T01:03:45.062Z,504.00
2023-01-25T01:04:45.019Z,506.00
2023-01-25T02:09:38.818Z,506.00
2023-01-25T02:11:38.614Z,507.00
2023-01-25T02:12:38.511Z,501.00
2023-01-25T02:13:38.419Z,508.00
2023-01-25T02:14:38.319Z,503.00
2023-01-25T02:15:38.237Z,505.00
2023-01-25T02:16:38.110Z,504.00
2023-01-25T02:18:37.918Z,505.00
2023-01-25T02:19:37.870Z,508.00
2023-01-25T02:20:37.752Z,509.00
2023-01-25T02:21:37.637Z,510.00
2023-01-25T02:22:37.548Z,505.00
2023-01-25T02:23:37.465Z,503.00
2023-01-25T02:24:37.351Z,505.00
2023-01-25T02:25:37.258Z,515.00
2023-01-25T02:26:37.171Z,509.00
2023-01-25T02:27:37.080Z,505.00
2023-01-25T02:28:36.986Z,506.00
2023-01-25T02:29:36.887Z,501.00
2023-01-25T02:30:36.807Z,508.00
2023-01-25T02:31:36.800Z,512.00
2023-01-25T02:32:36.614Z,504.00
2023-01-25T02:33:36.517Z,509.00
2023-01-25T02:34:36.442Z,508.00
2023-01-25T02:35:36.341Z,505.00
2023-01-25T02:36:36.383Z,507.00
2023-01-25T02:37:36.158Z,505.00
2023-01-25T02:38:36.050Z,506.00
2023-01-25T02:39:35.970Z,507.00
2023-01-25T02:41:35.781Z,508.00
2023-01-25T02:43:35.581Z,508.00
2023-01-25T02:44:35.482Z,506.00
2023-01-25T02:45:35.400Z,509.00
2023-01-25T02:46:35.335Z,511.00
2023-01-25T02:47:35.225Z,506.00
2023-01-25T02:48:35.116Z,512.00
2023-01-25T02:49:35.024Z,507.00
2023-01-25T02:50:34.926Z,505.00
2023-01-25T04:09:27.516Z,505.00
2023-01-25T04:10:27.390Z,508.00
2023-01-25T04:11:27.296Z,506.00
2023-01-25T04:12:27.187Z,500.00
2023-01-25T04:13:27.088Z,504.00
2023-01-25T04:14:43.321Z,508.00
2023-01-25T04:16:26.768Z,506.00
2023-01-25T04:17:26.609Z,509.00
2023-01-25T04:18:26.492Z,509.00
2023-01-25T04:19:26.373Z,510.00
2023-01-25T04:20:26.274Z,509.00
2023-01-25T04:21:26.130Z,504.00
2023-01-25T04:22:26.023Z,506.00
2023-01-25T04:23:25.905Z,507.00
2023-01-25T04:24:25.810Z,504.00
2023-01-25T04:25:25.646Z,505.00
2023-01-25T04:26:25.534Z,506.00
2023-01-25T04:27:25.409Z,501.00
2023-01-25T04:28:25.298Z,506.00
2023-01-25T04:29:39.153Z,508.00
2023-01-25T04:30:26.062Z,508.00
2023-01-25T04:31:25.034Z,508.00
2023-01-25T04:37:24.221Z,505.00
2023-01-25T04:38:24.091Z,503.00
2023-01-25T04:39:23.984Z,504.00
2023-01-25T04:40:23.857Z,503.00
2023-01-25T04:41:23.742Z,501.00
2023-01-25T04:42:23.619Z,504.00
2023-01-25T04:43:23.487Z,504.00
2023-01-25T04:44:23.378Z,503.00
2023-01-25T04:45:23.289Z,507.00
2023-01-25T04:46:23.204Z,506.00
2023-01-25T04:47:23.102Z,502.00
2023-01-25T04:48:22.976Z,502.00
2023-01-25T04:49:23.580Z,502.00
2023-01-25T04:50:22.771Z,504.00
2023-01-25T04:51:22.669Z,503.00
2023-01-25T04:52:22.541Z,503.00
2023-01-25T04:53:22.428Z,503.00
2023-01-25T04:54:22.312Z,505.00
2023-01-25T04:55:22.206Z,503.00
2023-01-25T04:56:22.090Z,501.00
2023-01-25T04:57:21.973Z,502.00
2023-01-25T04:58:21.870Z,502.00
2023-01-25T04:59:21.744Z,500.00
2023-01-25T05:00:21.658Z,503.00
2023-01-25T05:01:21.587Z,506.00
2023-01-25T05:02:21.546Z,504.00
2023-01-25T05:03:21.318Z,504.00
2023-01-25T05:04:21.223Z,504.00
2023-01-25T05:05:21.123Z,502.00
2023-01-25T05:06:21.042Z,502.00
2023-01-25T05:07:20.970Z,507.00
2023-01-25T05:08:20.883Z,503.00
2023-01-25T05:09:20.778Z,501.00
2023-01-25T05:10:20.679Z,501.00
2023-01-25T05:11:20.567Z,501.00
2023-01-25T05:12:20.484Z,504.00
2023-01-25T05:13:20.394Z,503.00
2023-01-25T05:14:20.295Z,500.00
2023-01-25T05:15:20.205Z,507.00
2023-01-25T05:16:20.169Z,502.00
2023-01-25T05:17:19.978Z,504.00
2023-01-25T05:18:19.847Z,505.00
2023-01-25T05:19:19.735Z,504.00
2023-01-25T05:20:19.613Z,504.00
2023-01-25T05:21:19.495Z,505.00
2023-01-25T05:22:19.383Z,502.00
2023-01-25T05:23:19.258Z,501.00
2023-01-25T05:24:19.210Z,504.00
2023-01-25T05:25:19.011Z,502.00
2023-01-25T05:26:18.881Z,505.00
2023-01-25T05:27:18.767Z,502.00
2023-01-25T05:28:18.658Z,503.00
2023-01-25T05:29:18.547Z,503.00
2023-01-25T05:30:18.416Z,503.00
2023-01-25T05:31:18.454Z,502.00
2023-01-25T05:32:18.174Z,500.00
2023-01-25T05:33:18.063Z,504.00
2023-01-25T05:34:17.942Z,503.00
2023-01-25T05:35:17.845Z,503.00
2023-01-25T05:36:17.713Z,505.00
2023-01-25T05:37:17.653Z,503.00
2023-01-25T05:38:17.483Z,504.00
2023-01-25T05:39:17.359Z,501.00
2023-01-25T05:40:17.241Z,509.00
2023-01-25T05:41:17.116Z,507.00
2023-01-25T05:42:17.004Z,507.00
2023-01-25T05:43:16.896Z,508.00
2023-01-25T05:44:16.761Z,507.00
2023-01-25T05:45:16.641Z,506.00
2023-01-25T05:46:16.623Z,509.00
2023-01-25T05:47:16.415Z,508.00
2023-01-25T05:48:16.300Z,505.00
2023-01-25T05:49:16.172Z,506.00
2023-01-25T05:50:16.060Z,508.00
2023-01-25T05:51:15.936Z,503.00
2023-01-25T05:52:15.821Z,503.00
2023-01-25T05:53:15.703Z,506.00
2023-01-25T05:54:15.593Z,507.00
2023-01-25T05:55:15.962Z,507.00
2023-01-25T05:56:15.364Z,511.00
2023-01-25T05:57:15.261Z,508.00
2023-01-25T05:58:15.142Z,504.00
2023-01-25T05:59:15.034Z,505.00
2023-01-25T06:00:14.916Z,505.00
2023-01-25T06:29:11.643Z,516.00
2023-01-25T06:30:11.535Z,525.00
2023-01-25T06:31:11.459Z,573.00
2023-01-25T06:32:11.307Z,571.00
2023-01-25T06:33:11.152Z,567.00
2023-01-25T06:34:11.025Z,577.00
2023-01-25T06:35:11.241Z,608.00
2023-01-25T06:36:10.816Z,599.00
2023-01-25T06:37:10.746Z,659.00
2023-01-25T06:38:10.670Z,765.00
2023-01-25T06:39:11.120Z,819.00
2023-01-25T06:40:10.527Z,750.00
2023-01-25T06:41:11.221Z,780.00
2023-01-25T06:42:10.355Z,754.00
2023-01-25T06:43:10.276Z,708.00
2023-01-25T06:44:10.180Z,760.00
2023-01-25T06:45:10.501Z,800.00
2023-01-25T06:46:10.091Z,777.00
2023-01-25T06:47:09.900Z,777.00
2023-01-25T06:48:11.153Z,759.00
2023-01-25T06:49:09.648Z,774.00
2023-01-25T06:50:09.522Z,759.00
2023-01-25T06:51:09.366Z,747.00
2023-01-25T06:52:09.227Z,698.00
2023-01-25T06:53:09.098Z,779.00
2023-01-25T06:54:08.944Z,804.00
2023-01-25T06:55:09.112Z,785.00
2023-01-25T06:56:10.740Z,804.00
2023-01-25T06:57:08.539Z,805.00
2023-01-25T06:58:08.393Z,794.00
2023-01-25T06:59:08.260Z,808.00
2023-01-25T07:00:08.110Z,834.00
2023-01-25T07:01:07.968Z,890.00
2023-01-25T07:02:07.880Z,936.00
2023-01-25T07:03:07.755Z,943.00
2023-01-25T07:04:08.972Z,980.00
2023-01-25T07:05:07.775Z,994.00
2023-01-25T07:06:07.251Z,998.00
2023-01-25T07:07:07.110Z,993.00
2023-01-25T07:08:06.968Z,970.00
2023-01-25T07:09:06.810Z,964.00
2023-01-25T07:10:06.667Z,962.00
2023-01-25T07:11:06.737Z,959.00
2023-01-25T07:12:06.376Z,1000.00
2023-01-25T07:13:06.229Z,1004.00
2023-01-25T07:14:06.108Z,1007.00
2023-01-25T07:15:06.007Z,1031.00
2023-01-25T07:16:05.793Z,1020.00
2023-01-25T07:17:05.645Z,1005.00
2023-01-25T07:18:15.670Z,1012.00
2023-01-25T07:19:06.367Z,1013.00
2023-01-25T07:20:05.213Z,1016.00
2023-01-25T07:21:05.069Z,1014.00
2023-01-25T07:22:04.976Z,1023.00
2023-01-25T08:24:57.516Z,632.00
2023-01-25T08:25:57.459Z,631.00
2023-01-25T08:26:57.297Z,621.00
2023-01-25T08:28:57.082Z,560.00
2023-01-25T08:29:56.967Z,547.00
2023-01-25T08:30:57.771Z,522.00
2023-01-25T08:32:56.671Z,500.00
2023-01-25T08:33:57.163Z,498.00
2023-01-25T08:34:56.435Z,477.00
2023-01-25T08:35:56.295Z,472.00
2023-01-25T08:36:56.179Z,460.00
2023-01-25T08:37:56.052Z,464.00
2023-01-25T08:38:55.942Z,504.00
2023-01-25T08:39:55.840Z,524.00
2023-01-25T08:40:55.663Z,539.00
2023-01-25T08:41:55.539Z,542.00
2023-01-25T08:42:56.168Z,551.00
2023-01-25T08:43:55.279Z,551.00
2023-01-25T08:44:55.138Z,543.00
2023-01-25T08:45:54.995Z,527.00
2023-01-25T08:51:56.204Z,564.00
2023-01-25T08:52:55.130Z,549.00
2023-01-25T09:22:55.693Z,643.00
2023-01-25T10:07:46.089Z,749.00
2023-01-25T10:18:45.083Z,781.00
2023-01-25T10:19:44.972Z,772.00
2023-01-25T10:24:45.203Z,747.00
2023-01-25T11:41:36.200Z,636.00
2023-01-25T11:42:36.132Z,641.00
2023-01-25T11:43:36.017Z,638.00
2023-01-25T11:44:35.924Z,636.00
2023-01-25T11:45:35.848Z,639.00
2023-01-25T11:46:35.793Z,636.00
2023-01-25T11:47:35.651Z,639.00
2023-01-25T11:48:35.566Z,638.00
2023-01-25T11:49:35.464Z,634.00
2023-01-25T11:50:35.381Z,638.00
2023-01-25T11:51:35.295Z,635.00
2023-01-25T11:52:35.202Z,634.00
2023-01-25T11:53:35.116Z,633.00
2023-01-25T11:54:35.045Z,633.00
2023-01-25T11:55:34.957Z,633.00
2023-01-25T11:56:34.884Z,636.00
2023-01-25T13:41:26.329Z,582.00
2023-01-25T13:42:26.215Z,581.00
2023-01-25T13:43:26.108Z,581.00
2023-01-25T13:44:26.003Z,586.00
2023-01-25T13:45:25.924Z,584.00
2023-01-25T13:46:25.776Z,585.00
2023-01-25T13:47:25.666Z,580.00
2023-01-25T13:48:25.546Z,585.00
2023-01-25T13:49:25.430Z,584.00
2023-01-25T13:50:25.301Z,578.00
2023-01-25T13:51:25.194Z,581.00
2023-01-25T13:52:25.077Z,584.00
2023-01-25T13:53:25.001Z,584.00
2023-01-25T14:47:19.957Z,567.00
2023-01-25T14:48:19.872Z,569.00
2023-01-25T14:49:19.766Z,566.00
2023-01-25T14:50:19.653Z,564.00
2023-01-25T14:51:19.570Z,570.00
2023-01-25T14:52:19.465Z,566.00
2023-01-25T14:53:19.351Z,566.00
2023-01-25T14:54:19.268Z,564.00
2023-01-25T14:55:19.154Z,566.00
2023-01-25T14:56:19.052Z,565.00
2023-01-25T14:57:18.942Z,563.00
2023-01-25T14:58:18.840Z,562.00
2023-01-25T14:59:18.718Z,557.00
2023-01-25T15:00:18.607Z,558.00
2023-01-25T15:01:18.561Z,557.00
2023-01-25T15:02:18.427Z,559.00
2023-01-25T15:03:18.267Z,557.00
2023-01-25T15:04:18.167Z,558.00
2023-01-25T15:05:18.067Z,560.00
2023-01-25T15:06:17.937Z,555.00
2023-01-25T15:07:18.623Z,561.00
2023-01-25T15:08:17.729Z,552.00
2023-01-25T15:09:17.614Z,554.00
2023-01-25T15:10:17.489Z,552.00
2023-01-25T15:11:17.372Z,554.00
2023-01-25T15:12:17.253Z,548.00
2023-01-25T15:13:17.151Z,553.00
2023-01-25T15:14:17.040Z,552.00
2023-01-25T15:15:16.928Z,558.00
2023-01-25T15:16:16.867Z,553.00
2023-01-25T15:17:16.703Z,551.00
2023-01-25T15:18:16.614Z,549.00
2023-01-25T15:19:16.478Z,557.00
2023-01-25T15:20:16.376Z,549.00
2023-01-25T15:21:16.250Z,557.00
2023-01-25T15:22:16.153Z,546.00
2023-01-25T15:23:16.050Z,549.00
2023-01-25T15:24:15.967Z,549.00
2023-01-25T15:25:23.871Z,547.00
2023-01-25T15:26:16.711Z,547.00
2023-01-25T15:27:15.576Z,547.00
2023-01-25T15:28:15.471Z,547.00
2023-01-25T15:29:15.344Z,549.00
2023-01-25T15:30:15.238Z,547.00
2023-01-25T15:31:15.255Z,547.00
2023-01-25T15:32:14.978Z,545.00
2023-01-25T16:05:11.005Z,538.00
2023-01-25T16:06:10.892Z,538.00
2023-01-25T16:07:10.791Z,540.00
2023-01-25T16:08:10.672Z,538.00
2023-01-25T16:09:10.590Z,536.00
2023-01-25T16:10:10.894Z,533.00
2023-01-25T16:11:10.354Z,536.00
2023-01-25T16:12:10.234Z,535.00
2023-01-25T16:13:10.131Z,540.00
2023-01-25T16:14:10.023Z,536.00
2023-01-25T16:15:09.909Z,538.00
2023-01-25T16:16:09.792Z,538.00
2023-01-25T16:17:09.677Z,535.00
2023-01-25T16:18:09.567Z,535.00
2023-01-25T16:19:09.446Z,534.00
2023-01-25T16:20:09.737Z,532.00
2023-01-25T16:21:10.505Z,534.00
2023-01-25T16:22:09.155Z,532.00
2023-01-25T16:23:09.051Z,536.00
2023-01-25T16:24:08.959Z,532.00
2023-01-25T16:25:08.844Z,536.00
2023-01-25T16:26:08.732Z,534.00
2023-01-25T16:27:08.627Z,537.00
2023-01-25T16:28:08.502Z,532.00
2023-01-25T16:29:08.426Z,534.00
2023-01-25T16:30:08.500Z,534.00
2023-01-25T16:31:08.866Z,532.00
2023-01-25T16:32:08.113Z,534.00
2023-01-25T16:33:07.964Z,533.00
2023-01-25T16:34:07.892Z,536.00
2023-01-25T16:35:07.767Z,533.00
2023-01-25T16:36:07.704Z,531.00
2023-01-25T16:37:07.546Z,532.00
2023-01-25T16:38:07.428Z,536.00
2023-01-25T16:39:07.327Z,532.00
2023-01-25T16:40:07.232Z,530.00
2023-01-25T16:42:07.016Z,533.00
2023-01-25T16:43:06.902Z,534.00
2023-01-25T16:44:06.813Z,532.00
2023-01-25T16:45:06.688Z,527.00
2023-01-25T16:46:06.607Z,530.00
2023-01-25T16:47:06.491Z,536.00
2023-01-25T16:48:06.380Z,527.00
2023-01-25T16:49:06.260Z,528.00
2023-01-25T16:50:06.162Z,532.00
2023-01-25T16:51:06.052Z,534.00
2023-01-25T16:52:05.948Z,536.00
2023-01-25T16:53:05.845Z,532.00
2023-01-25T16:54:05.755Z,533.00
2023-01-25T16:55:05.630Z,527.00
2023-01-25T16:56:05.525Z,531.00
2023-01-25T16:57:14.970Z,533.00
2023-01-25T16:58:06.307Z,533.00
2023-01-25T16:59:05.224Z,533.00
2023-01-25T17:00:05.057Z,527.00
2023-01-25T17:01:04.945Z,529.00
2023-01-25T18:01:57.860Z,521.00
2023-01-25T18:09:56.968Z,516.00
2023-01-25T18:10:56.872Z,523.00
2023-01-25T18:11:56.758Z,522.00
2023-01-25T18:13:04.466Z,515.00
2023-01-25T18:14:56.409Z,516.00
2023-01-25T18:15:56.288Z,518.00
2023-01-25T18:23:55.339Z,518.00
2023-01-25T18:24:55.166Z,517.00
2023-01-25T18:25:55.057Z,516.00
2023-01-25T18:26:54.939Z,520.00
2023-01-25T18:29:55.407Z,515.00
2023-01-25T19:40:46.948Z,507.00
2023-01-25T19:56:45.358Z,506.00
2023-01-25T19:58:45.140Z,503.00
2023-01-25T19:59:45.034Z,506.00
2023-01-25T20:00:44.932Z,503.00
2023-01-25T20:05:44.438Z,500.00
2023-01-25T20:06:44.360Z,505.00
2023-01-25T20:07:44.234Z,507.00
2023-01-25T20:08:44.133Z,506.00
2023-01-25T20:09:44.046Z,507.00
2023-01-25T20:10:43.937Z,506.00
2023-01-25T20:11:43.851Z,504.00
2023-01-25T20:12:43.744Z,503.00
2023-01-25T20:13:43.684Z,508.00
2023-01-25T20:14:43.528Z,504.00
2023-01-25T20:15:43.459Z,501.00
2023-01-25T20:16:43.323Z,510.00
2023-01-25T20:17:43.225Z,500.00
2023-01-25T20:18:43.149Z,506.00
2023-01-25T20:19:43.057Z,508.00
2023-01-25T20:20:42.910Z,510.00
2023-01-25T20:21:42.831Z,505.00
2023-01-25T20:22:42.721Z,505.00
2023-01-25T20:23:42.632Z,508.00
2023-01-25T20:24:42.534Z,507.00
2023-01-25T20:25:42.441Z,508.00
2023-01-25T20:26:42.328Z,508.00
2023-01-25T20:27:42.233Z,505.00
2023-01-25T20:28:42.165Z,507.00
2023-01-25T20:29:42.040Z,507.00
2023-01-25T20:30:41.969Z,508.00
2023-01-25T20:31:41.925Z,509.00
2023-01-25T20:32:41.775Z,506.00
2023-01-25T20:33:41.651Z,507.00
2023-01-25T20:34:41.545Z,506.00
2023-01-25T20:35:41.442Z,508.00
2023-01-25T20:36:41.354Z,509.00
2023-01-25T20:37:41.242Z,508.00
2023-01-25T20:38:41.157Z,509.00
2023-01-25T20:39:41.050Z,504.00
2023-01-25T20:40:40.950Z,504.00
2023-01-25T20:41:40.871Z,506.00
2023-01-25T20:42:40.748Z,503.00
2023-01-25T20:43:40.653Z,504.00
2023-01-25T20:44:40.591Z,505.00
2023-01-25T20:45:40.468Z,508.00
2023-01-25T20:46:40.445Z,508.00
2023-01-25T20:47:40.270Z,510.00
2023-01-25T20:48:40.170Z,506.00
2023-01-25T20:49:40.091Z,505.00
2023-01-25T20:50:39.976Z,503.00
2023-01-25T20:51:39.869Z,505.00
2023-01-25T20:52:39.767Z,508.00
2023-01-25T20:53:39.699Z,504.00
2023-01-25T20:54:39.572Z,508.00
2023-01-25T20:55:39.465Z,502.00
2023-01-25T20:56:39.376Z,503.00
2023-01-25T20:57:39.284Z,502.00
2023-01-25T20:58:39.176Z,504.00
2023-01-25T20:59:39.062Z,506.00
2023-01-25T21:00:39.045Z,507.00
2023-01-25T21:01:38.935Z,502.00
2023-01-25T21:02:38.786Z,503.00
2023-01-25T21:03:38.675Z,503.00
2023-01-25T21:04:38.567Z,504.00
2023-01-25T21:05:38.462Z,511.00
2023-01-25T21:06:38.372Z,506.00
2023-01-25T21:07:38.264Z,510.00
2023-01-25T21:08:38.158Z,505.00
2023-01-25T21:09:38.068Z,507.00
2023-01-25T21:10:37.983Z,502.00
2023-01-25T21:11:37.870Z,504.00
2023-01-25T21:12:37.767Z,506.00
2023-01-25T21:13:37.688Z,506.00
2023-01-25T21:14:37.577Z,508.00
2023-01-25T21:15:37.478Z,504.00
2023-01-25T21:16:37.453Z,505.00
2023-01-25T21:17:37.274Z,502.00
2023-01-25T21:18:37.200Z,506.00
2023-01-25T21:19:37.094Z,510.00
2023-01-25T21:20:36.981Z,509.00
2023-01-25T21:21:36.880Z,501.00
2023-01-25T21:22:36.782Z,501.00
2023-01-25T21:23:36.688Z,502.00
2023-01-25T21:24:36.590Z,503.00
2023-01-25T21:25:36.487Z,502.00
2023-01-25T21:26:36.379Z,506.00
2023-01-25T21:27:36.279Z,503.00
2023-01-25T21:28:36.192Z,505.00
2023-01-25T21:29:36.093Z,507.00
2023-01-25T21:30:35.983Z,506.00
2023-01-25T21:31:35.959Z,504.00
2023-01-25T21:32:35.795Z,509.00
2023-01-25T21:33:35.687Z,508.00
2023-01-25T21:34:35.597Z,502.00
2023-01-25T21:35:35.503Z,502.00
2023-01-25T21:36:35.408Z,502.00
2023-01-25T21:37:35.311Z,500.00
2023-01-25T21:38:35.205Z,504.00
2023-01-25T21:39:35.116Z,502.00
2023-01-25T21:40:35.029Z,504.00
2023-01-25T21:41:34.949Z,506.00
2023-01-25T22:55:27.567Z,506.00
2023-01-25T22:56:27.451Z,509.00
2023-01-25T22:57:27.351Z,506.00
2023-01-25T22:58:27.237Z,507.00
2023-01-25T22:59:27.154Z,507.00
2023-01-25T23:00:27.047Z,507.00
2023-01-25T23:01:26.948Z,502.00
2023-01-25T23:02:26.848Z,506.00
2023-01-25T23:03:26.813Z,503.00
2023-01-25T23:04:26.695Z,504.00
2023-01-25T23:05:26.548Z,510.00
2023-01-25T23:06:26.450Z,511.00
2023-01-25T23:07:26.353Z,510.00
2023-01-25T23:08:26.257Z,514.00
2023-01-25T23:09:26.213Z,505.00
2023-01-25T23:10:26.069Z,506.00
2023-01-25T23:20:25.067Z,507.00
2023-01-25T23:21:24.948Z,505.00
